sensor_id;sensor_type;location;lat;lon;timestamp;P1;durP1;ratioP1;P2;durP2;ratioP2
31095;SDS011;17749;51.962;8.560;2022-10-30T06:05:06;22.02;;;8.77;;
31095;SDS011;17749;51.962;8.560;2022-10-30T06:07:33;23.70;;;10.35;;
31095;SDS011;17749;51.962;8.560;2022-10-30T06:10:00;22.70;;;11.15;;
31095;SDS011;17749;51.962;8.560;2022-10-30T06:12:41;14.02;;;8.35;;
31095;SDS011;17749;51.962;8.560;2022-10-30T06:15:18;12.75;;;7.40;;
31095;SDS011;17749;51.962;8.560;2022-10-30T06:17:46;17.05;;;7.45;;
31095;SDS011;17749;51.962;8.560;2022-10-30T06:20:17;19.75;;;7.40;;
31095;SDS011;17749;51.962;8.560;2022-10-30T06:25:46;14.80;;;7.22;;
31095;SDS011;17749;51.962;8.560;2022-10-30T06:28:20;10.82;;;6.30;;
31095;SDS011;17749;51.962;8.560;2022-10-30T06:30:47;15.52;;;6.43;;
31095;SDS011;17749;51.962;8.560;2022-10-30T06:33:14;17.00;;;7.57;;
31095;SDS011;17749;51.962;8.560;2022-10-30T06:35:47;19.63;;;7.18;;
31095;SDS011;17749;51.962;8.560;2022-10-30T06:38:16;17.77;;;6.82;;
31095;SDS011;17749;51.962;8.560;2022-10-30T06:40:43;17.48;;;8.52;;
31095;SDS011;17749;51.962;8.560;2022-10-30T06:43:36;14.88;;;7.45;;
31095;SDS011;17749;51.962;8.560;2022-10-30T06:46:09;16.85;;;7.35;;
31095;SDS011;17749;51.962;8.560;2022-10-30T06:48:39;15.48;;;7.72;;
31095;SDS011;17749;51.962;8.560;2022-10-30T06:51:06;21.05;;;8.38;;
31095;SDS011;17749;51.962;8.560;2022-10-30T06:53:36;14.88;;;7.43;;
31095;SDS011;17749;51.962;8.560;2022-10-30T06:56:22;14.88;;;6.70;;
31095;SDS011;17749;51.962;8.560;2022-10-30T06:59:15;24.52;;;7.40;;
31095;SDS011;17749;51.962;8.560;2022-10-30T07:01:51;15.25;;;6.80;;
31095;SDS011;17749;51.962;8.560;2022-10-30T07:04:25;15.70;;;7.53;;
31095;SDS011;17749;51.962;8.560;2022-10-30T07:06:54;12.73;;;7.18;;
31095;SDS011;17749;51.962;8.560;2022-10-30T07:09:21;13.57;;;6.30;;
31095;SDS011;17749;51.962;8.560;2022-10-30T07:11:49;12.68;;;6.40;;
31095;SDS011;17749;51.962;8.560;2022-10-30T07:14:44;17.10;;;7.00;;
31095;SDS011;17749;51.962;8.560;2022-10-30T07:17:49;15.20;;;6.45;;
31095;SDS011;17749;51.962;8.560;2022-10-30T07:20:23;16.85;;;8.07;;
31095;SDS011;17749;51.962;8.560;2022-10-30T07:22:50;22.65;;;7.22;;
31095;SDS011;17749;51.962;8.560;2022-10-30T07:25:17;19.45;;;7.53;;
31095;SDS011;17749;51.962;8.560;2022-10-30T07:28:02;18.13;;;7.68;;
31095;SDS011;17749;51.962;8.560;2022-10-30T07:30:36;15.57;;;6.40;;
31095;SDS011;17749;51.962;8.560;2022-10-30T07:33:36;19.25;;;7.90;;
31095;SDS011;17749;51.962;8.560;2022-10-30T07:36:19;20.67;;;7.95;;
31095;SDS011;17749;51.962;8.560;2022-10-30T07:39:12;18.75;;;7.95;;
31095;SDS011;17749;51.962;8.560;2022-10-30T07:41:52;19.70;;;7.35;;
31095;SDS011;17749;51.962;8.560;2022-10-30T07:44:38;17.92;;;7.68;;
31095;SDS011;17749;51.962;8.560;2022-10-30T07:47:24;19.13;;;7.45;;
31095;SDS011;17749;51.962;8.560;2022-10-30T07:52:21;15.82;;;7.43;;
31095;SDS011;17749;51.962;8.560;2022-10-30T07:54:50;19.73;;;7.13;;
31095;SDS011;17749;51.962;8.560;2022-10-30T07:57:36;14.35;;;7.53;;
31095;SDS011;17749;51.962;8.560;2022-10-30T08:00:23;16.60;;;7.70;;
31095;SDS011;17749;51.962;8.560;2022-10-30T08:03:00;18.40;;;7.32;;
31095;SDS011;17749;51.962;8.560;2022-10-30T08:05:36;15.57;;;6.88;;
31095;SDS011;17749;51.962;8.560;2022-10-30T08:08:07;24.27;;;8.00;;
31095;SDS011;17749;51.962;8.560;2022-10-30T08:10:34;16.67;;;7.70;;
31095;SDS011;17749;51.962;8.560;2022-10-30T08:13:02;19.75;;;7.43;;
31095;SDS011;17749;51.962;8.560;2022-10-30T08:15:29;16.90;;;7.53;;
31095;SDS011;17749;51.962;8.560;2022-10-30T08:17:56;18.55;;;6.95;;
31095;SDS011;17749;51.962;8.560;2022-10-30T08:20:24;17.33;;;7.43;;
31095;SDS011;17749;51.962;8.560;2022-10-30T08:22:52;18.08;;;7.38;;
31095;SDS011;17749;51.962;8.560;2022-10-30T08:25:26;17.20;;;8.02;;
31095;SDS011;17749;51.962;8.560;2022-10-30T08:28:00;15.48;;;7.22;;
31095;SDS011;17749;51.962;8.560;2022-10-30T08:30:34;26.10;;;8.30;;
31095;SDS011;17749;51.962;8.560;2022-10-30T08:33:04;19.70;;;7.78;;
31095;SDS011;17749;51.962;8.560;2022-10-30T08:35:52;16.05;;;6.93;;
31095;SDS011;17749;51.962;8.560;2022-10-30T08:38:22;20.70;;;7.35;;
31095;SDS011;17749;51.962;8.560;2022-10-30T08:41:04;14.07;;;6.47;;
31095;SDS011;17749;51.962;8.560;2022-10-30T08:43:36;18.25;;;7.18;;
31095;SDS011;17749;51.962;8.560;2022-10-30T08:46:04;19.50;;;7.32;;
31095;SDS011;17749;51.962;8.560;2022-10-30T08:48:31;20.45;;;7.63;;
31095;SDS011;17749;51.962;8.560;2022-10-30T08:50:58;15.55;;;6.85;;
31095;SDS011;17749;51.962;8.560;2022-10-30T08:53:33;17.45;;;6.78;;
31095;SDS011;17749;51.962;8.560;2022-10-30T08:56:03;16.80;;;7.32;;
31095;SDS011;17749;51.962;8.560;2022-10-30T08:58:43;19.80;;;6.63;;
31095;SDS011;17749;51.962;8.560;2022-10-30T09:03:59;21.75;;;6.20;;
31095;SDS011;17749;51.962;8.560;2022-10-30T09:06:46;16.08;;;6.60;;
31095;SDS011;17749;51.962;8.560;2022-10-30T09:09:22;14.20;;;7.10;;
31095;SDS011;17749;51.962;8.560;2022-10-30T09:11:52;13.45;;;6.55;;
31095;SDS011;17749;51.962;8.560;2022-10-30T09:14:19;14.38;;;6.30;;
31095;SDS011;17749;51.962;8.560;2022-10-30T09:16:46;17.75;;;6.25;;
31095;SDS011;17749;51.962;8.560;2022-10-30T09:19:15;14.05;;;5.43;;
31095;SDS011;17749;51.962;8.560;2022-10-30T09:24:12;11.10;;;6.05;;
31095;SDS011;17749;51.962;8.560;2022-10-30T09:27:02;14.20;;;6.20;;
31095;SDS011;17749;51.962;8.560;2022-10-30T09:29:35;14.50;;;5.93;;
31095;SDS011;17749;51.962;8.560;2022-10-30T09:32:19;14.75;;;6.20;;
31095;SDS011;17749;51.962;8.560;2022-10-30T09:34:58;13.77;;;6.88;;
31095;SDS011;17749;51.962;8.560;2022-10-30T09:37:32;17.98;;;5.70;;
31095;SDS011;17749;51.962;8.560;2022-10-30T09:40:04;17.67;;;6.35;;
31095;SDS011;17749;51.962;8.560;2022-10-30T09:42:37;9.32;;;5.15;;
31095;SDS011;17749;51.962;8.560;2022-10-30T09:53:39;18.33;;;6.53;;
31095;SDS011;17749;51.962;8.560;2022-10-30T09:56:30;13.35;;;6.25;;
31095;SDS011;17749;51.962;8.560;2022-10-30T10:02:00;15.25;;;6.22;;
31095;SDS011;17749;51.962;8.560;2022-10-30T10:04:42;14.82;;;5.57;;
31095;SDS011;17749;51.962;8.560;2022-10-30T10:07:31;16.23;;;5.80;;
31095;SDS011;17749;51.962;8.560;2022-10-30T10:10:36;14.93;;;5.40;;
31095;SDS011;17749;51.962;8.560;2022-10-30T10:13:26;17.10;;;5.60;;
31095;SDS011;17749;51.962;8.560;2022-10-30T10:15:58;13.70;;;5.18;;
31095;SDS011;17749;51.962;8.560;2022-10-30T10:18:48;11.02;;;5.18;;
31095;SDS011;17749;51.962;8.560;2022-10-30T10:21:24;21.85;;;6.13;;
31095;SDS011;17749;51.962;8.560;2022-10-30T10:26:34;12.32;;;6.03;;
31095;SDS011;17749;51.962;8.560;2022-10-30T10:29:31;26.02;;;14.10;;
31095;SDS011;17749;51.962;8.560;2022-10-30T10:34:42;17.30;;;6.05;;
31095;SDS011;17749;51.962;8.560;2022-10-30T10:40:20;19.25;;;6.38;;
31095;SDS011;17749;51.962;8.560;2022-10-30T10:51:46;10.13;;;5.20;;
31095;SDS011;17749;51.962;8.560;2022-10-30T10:54:18;19.15;;;5.45;;
31095;SDS011;17749;51.962;8.560;2022-10-30T10:56:51;42.35;;;18.08;;
31095;SDS011;17749;51.962;8.560;2022-10-30T10:59:22;16.42;;;8.00;;
31095;SDS011;17749;51.962;8.560;2022-10-30T11:02:28;12.30;;;5.57;;
31095;SDS011;17749;51.962;8.560;2022-10-30T11:05:01;16.27;;;5.72;;
31095;SDS011;17749;51.962;8.560;2022-10-30T11:07:36;11.07;;;4.97;;
31095;SDS011;17749;51.962;8.560;2022-10-30T11:10:12;16.83;;;5.85;;
31095;SDS011;17749;51.962;8.560;2022-10-30T11:12:40;12.43;;;5.43;;
31095;SDS011;17749;51.962;8.560;2022-10-30T11:18:03;13.77;;;5.38;;
31095;SDS011;17749;51.962;8.560;2022-10-30T11:20:41;14.40;;;5.38;;
31095;SDS011;17749;51.962;8.560;2022-10-30T11:23:35;17.85;;;5.50;;
31095;SDS011;17749;51.962;8.560;2022-10-30T11:28:49;10.18;;;5.10;;
31095;SDS011;17749;51.962;8.560;2022-10-30T11:33:50;18.10;;;5.95;;
31095;SDS011;17749;51.962;8.560;2022-10-30T11:36:18;21.73;;;5.72;;
31095;SDS011;17749;51.962;8.560;2022-10-30T11:38:48;18.55;;;6.22;;
31095;SDS011;17749;51.962;8.560;2022-10-30T11:41:16;20.98;;;5.40;;
31095;SDS011;17749;51.962;8.560;2022-10-30T11:43:45;15.70;;;6.13;;
31095;SDS011;17749;51.962;8.560;2022-10-30T11:46:18;13.25;;;4.82;;
31095;SDS011;17749;51.962;8.560;2022-10-30T11:48:48;15.48;;;5.28;;
31095;SDS011;17749;51.962;8.560;2022-10-30T11:51:30;13.40;;;5.32;;
31095;SDS011;17749;51.962;8.560;2022-10-30T11:54:01;19.30;;;6.22;;
31095;SDS011;17749;51.962;8.560;2022-10-30T11:56:29;14.52;;;5.20;;
31095;SDS011;17749;51.962;8.560;2022-10-30T11:58:58;16.58;;;5.43;;
31095;SDS011;17749;51.962;8.560;2022-10-30T12:01:29;17.52;;;5.07;;
31095;SDS011;17749;51.962;8.560;2022-10-30T12:04:13;14.48;;;5.65;;
31095;SDS011;17749;51.962;8.560;2022-10-30T12:09:48;17.48;;;5.28;;
31095;SDS011;17749;51.962;8.560;2022-10-30T12:12:20;16.92;;;6.32;;
31095;SDS011;17749;51.962;8.560;2022-10-30T12:15:09;14.50;;;5.35;;
31095;SDS011;17749;51.962;8.560;2022-10-30T12:17:59;16.55;;;5.20;;
31095;SDS011;17749;51.962;8.560;2022-10-30T12:20:28;16.00;;;5.95;;
31095;SDS011;17749;51.962;8.560;2022-10-30T12:22:55;8.80;;;4.93;;
31095;SDS011;17749;51.962;8.560;2022-10-30T12:28:02;10.68;;;4.70;;
31095;SDS011;17749;51.962;8.560;2022-10-30T12:30:33;14.38;;;6.05;;
31095;SDS011;17749;51.962;8.560;2022-10-30T12:35:56;18.00;;;5.40;;
31095;SDS011;17749;51.962;8.560;2022-10-30T12:38:31;18.17;;;4.72;;
31095;SDS011;17749;51.962;8.560;2022-10-30T12:41:15;17.50;;;5.72;;
31095;SDS011;17749;51.962;8.560;2022-10-30T12:43:44;12.27;;;5.53;;
31095;SDS011;17749;51.962;8.560;2022-10-30T12:46:32;12.85;;;5.15;;
31095;SDS011;17749;51.962;8.560;2022-10-30T12:49:13;11.77;;;4.95;;
31095;SDS011;17749;51.962;8.560;2022-10-30T12:51:48;9.88;;;4.57;;
31095;SDS011;17749;51.962;8.560;2022-10-30T12:54:25;16.30;;;5.38;;
31095;SDS011;17749;51.962;8.560;2022-10-30T12:57:02;12.48;;;5.10;;
31095;SDS011;17749;51.962;8.560;2022-10-30T12:59:41;14.13;;;4.72;;
31095;SDS011;17749;51.962;8.560;2022-10-30T13:04:56;11.32;;;5.90;;
31095;SDS011;17749;51.962;8.560;2022-10-30T13:13:15;12.63;;;4.97;;
31095;SDS011;17749;51.962;8.560;2022-10-30T13:15:50;13.65;;;4.70;;
31095;SDS011;17749;51.962;8.560;2022-10-30T13:18:21;20.23;;;5.32;;
31095;SDS011;17749;51.962;8.560;2022-10-30T13:26:13;21.17;;;5.78;;
31095;SDS011;17749;51.962;8.560;2022-10-30T13:32:22;15.73;;;5.63;;
31095;SDS011;17749;51.962;8.560;2022-10-30T13:37:42;17.55;;;4.82;;
31095;SDS011;17749;51.962;8.560;2022-10-30T13:42:55;15.93;;;5.38;;
31095;SDS011;17749;51.962;8.560;2022-10-30T13:53:42;11.63;;;4.28;;
31095;SDS011;17749;51.962;8.560;2022-10-30T13:56:15;12.88;;;4.88;;
31095;SDS011;17749;51.962;8.560;2022-10-30T13:58:45;17.80;;;5.10;;
31095;SDS011;17749;51.962;8.560;2022-10-30T14:01:30;12.27;;;4.72;;
31095;SDS011;17749;51.962;8.560;2022-10-30T14:07:11;12.27;;;5.15;;
31095;SDS011;17749;51.962;8.560;2022-10-30T14:10:06;13.85;;;4.90;;
31095;SDS011;17749;51.962;8.560;2022-10-30T14:20:45;27.35;;;14.25;;
31095;SDS011;17749;51.962;8.560;2022-10-30T14:28:33;20.33;;;9.25;;
31095;SDS011;17749;51.962;8.560;2022-10-30T14:31:02;19.05;;;8.93;;
31095;SDS011;17749;51.962;8.560;2022-10-30T14:33:47;18.80;;;10.15;;
31095;SDS011;17749;51.962;8.560;2022-10-30T14:41:33;18.40;;;9.43;;
31095;SDS011;17749;51.962;8.560;2022-10-30T14:46:52;19.45;;;7.18;;
31095;SDS011;17749;51.962;8.560;2022-10-30T14:49:32;15.77;;;7.13;;
31095;SDS011;17749;51.962;8.560;2022-10-30T14:52:27;20.27;;;7.53;;
31095;SDS011;17749;51.962;8.560;2022-10-30T14:57:52;17.40;;;6.75;;
31095;SDS011;17749;51.962;8.560;2022-10-30T15:00:43;18.17;;;6.10;;
31095;SDS011;17749;51.962;8.560;2022-10-30T15:03:17;10.57;;;6.15;;
31095;SDS011;17749;51.962;8.560;2022-10-30T15:14:56;13.07;;;6.28;;
31095;SDS011;17749;51.962;8.560;2022-10-30T15:17:34;14.18;;;6.10;;
31095;SDS011;17749;51.962;8.560;2022-10-30T15:20:05;22.52;;;7.25;;
31095;SDS011;17749;51.962;8.560;2022-10-30T15:22:34;12.32;;;6.00;;
31095;SDS011;17749;51.962;8.560;2022-10-30T15:25:02;20.52;;;6.35;;
31095;SDS011;17749;51.962;8.560;2022-10-30T15:27:29;12.23;;;6.40;;
31095;SDS011;17749;51.962;8.560;2022-10-30T15:29:59;15.00;;;6.43;;
31095;SDS011;17749;51.962;8.560;2022-10-30T15:32:27;16.92;;;6.95;;
31095;SDS011;17749;51.962;8.560;2022-10-30T15:34:55;19.10;;;6.55;;
31095;SDS011;17749;51.962;8.560;2022-10-30T15:37:25;15.27;;;6.60;;
31095;SDS011;17749;51.962;8.560;2022-10-30T15:40:09;14.38;;;6.93;;
31095;SDS011;17749;51.962;8.560;2022-10-30T15:42:44;13.63;;;6.57;;
31095;SDS011;17749;51.962;8.560;2022-10-30T15:45:20;14.77;;;7.05;;
31095;SDS011;17749;51.962;8.560;2022-10-30T15:48:07;16.17;;;6.95;;
31095;SDS011;17749;51.962;8.560;2022-10-30T15:50:52;15.15;;;7.15;;
31095;SDS011;17749;51.962;8.560;2022-10-30T15:53:25;21.48;;;7.65;;
31095;SDS011;17749;51.962;8.560;2022-10-30T15:56:02;17.98;;;7.82;;
31095;SDS011;17749;51.962;8.560;2022-10-30T15:58:30;23.73;;;8.63;;
31095;SDS011;17749;51.962;8.560;2022-10-30T16:00:59;21.77;;;8.38;;
31095;SDS011;17749;51.962;8.560;2022-10-30T16:03:27;19.10;;;8.63;;
31095;SDS011;17749;51.962;8.560;2022-10-30T16:08:43;20.77;;;8.60;;
31095;SDS011;17749;51.962;8.560;2022-10-30T16:11:11;25.90;;;7.75;;
31095;SDS011;17749;51.962;8.560;2022-10-30T16:13:40;16.17;;;6.43;;
31095;SDS011;17749;51.962;8.560;2022-10-30T16:16:41;17.17;;;6.82;;
31095;SDS011;17749;51.962;8.560;2022-10-30T16:19:02;22.42;;;7.72;;
31095;SDS011;17749;51.962;8.560;2022-10-30T16:21:30;20.75;;;6.68;;
31095;SDS011;17749;51.962;8.560;2022-10-30T16:24:00;14.57;;;6.80;;
31095;SDS011;17749;51.962;8.560;2022-10-30T16:26:30;19.92;;;7.30;;
31095;SDS011;17749;51.962;8.560;2022-10-30T16:31:44;15.25;;;7.32;;
31095;SDS011;17749;51.962;8.560;2022-10-30T16:34:20;17.20;;;8.57;;
31095;SDS011;17749;51.962;8.560;2022-10-30T16:36:50;15.48;;;8.50;;
31095;SDS011;17749;51.962;8.560;2022-10-30T16:39:18;17.35;;;8.35;;
31095;SDS011;17749;51.962;8.560;2022-10-30T16:41:46;20.15;;;8.55;;
31095;SDS011;17749;51.962;8.560;2022-10-30T16:44:18;19.80;;;7.47;;
31095;SDS011;17749;51.962;8.560;2022-10-30T16:49:35;16.50;;;7.53;;
31095;SDS011;17749;51.962;8.560;2022-10-30T16:52:04;15.60;;;6.57;;
31095;SDS011;17749;51.962;8.560;2022-10-30T16:54:34;17.75;;;7.25;;
31095;SDS011;17749;51.962;8.560;2022-10-30T16:57:08;19.02;;;7.13;;
31095;SDS011;17749;51.962;8.560;2022-10-30T16:59:47;19.35;;;7.53;;
31095;SDS011;17749;51.962;8.560;2022-10-30T17:02:27;18.80;;;7.75;;
31095;SDS011;17749;51.962;8.560;2022-10-30T17:05:07;13.10;;;7.03;;
31095;SDS011;17749;51.962;8.560;2022-10-30T17:07:37;18.00;;;7.80;;
31095;SDS011;17749;51.962;8.560;2022-10-30T17:10:27;18.77;;;7.60;;
31095;SDS011;17749;51.962;8.560;2022-10-30T17:18:54;21.05;;;9.95;;
31095;SDS011;17749;51.962;8.560;2022-10-30T17:21:28;24.20;;;10.30;;
31095;SDS011;17749;51.962;8.560;2022-10-30T17:24:03;21.03;;;11.47;;
31095;SDS011;17749;51.962;8.560;2022-10-30T17:26:34;22.77;;;11.82;;
31095;SDS011;17749;51.962;8.560;2022-10-30T17:29:04;18.65;;;11.15;;
31095;SDS011;17749;51.962;8.560;2022-10-30T17:36:39;26.48;;;13.45;;
31095;SDS011;17749;51.962;8.560;2022-10-30T17:39:06;32.00;;;15.50;;
31095;SDS011;17749;51.962;8.560;2022-10-30T17:41:34;37.22;;;17.83;;
31095;SDS011;17749;51.962;8.560;2022-10-30T17:44:01;34.90;;;17.55;;
31095;SDS011;17749;51.962;8.560;2022-10-30T17:46:28;43.70;;;20.70;;
31095;SDS011;17749;51.962;8.560;2022-10-30T17:48:59;48.55;;;20.05;;
31095;SDS011;17749;51.962;8.560;2022-10-30T17:51:26;48.50;;;20.92;;
31095;SDS011;17749;51.962;8.560;2022-10-30T17:53:54;47.70;;;21.38;;
31095;SDS011;17749;51.962;8.560;2022-10-30T17:58:53;43.78;;;20.58;;
31095;SDS011;17749;51.962;8.560;2022-10-30T18:01:22;41.72;;;18.00;;
31095;SDS011;17749;51.962;8.560;2022-10-30T18:03:51;34.88;;;15.95;;
31095;SDS011;17749;51.962;8.560;2022-10-30T18:06:26;35.85;;;15.07;;
31095;SDS011;17749;51.962;8.560;2022-10-30T18:08:54;31.60;;;14.90;;
31095;SDS011;17749;51.962;8.560;2022-10-30T18:11:22;36.20;;;15.18;;
31095;SDS011;17749;51.962;8.560;2022-10-30T18:13:50;36.78;;;17.23;;
31095;SDS011;17749;51.962;8.560;2022-10-30T18:16:18;26.02;;;13.70;;
31095;SDS011;17749;51.962;8.560;2022-10-30T18:18:45;26.73;;;12.95;;
31095;SDS011;17749;51.962;8.560;2022-10-30T18:21:12;29.35;;;14.73;;
31095;SDS011;17749;51.962;8.560;2022-10-30T18:23:41;25.95;;;12.95;;
31095;SDS011;17749;51.962;8.560;2022-10-30T18:26:24;24.55;;;12.18;;
31095;SDS011;17749;51.962;8.560;2022-10-30T18:28:52;21.95;;;11.40;;
31095;SDS011;17749;51.962;8.560;2022-10-30T18:31:21;21.38;;;11.05;;
31095;SDS011;17749;51.962;8.560;2022-10-30T18:33:49;20.33;;;10.13;;
31095;SDS011;17749;51.962;8.560;2022-10-30T18:36:17;18.55;;;9.38;;
31095;SDS011;17749;51.962;8.560;2022-10-30T18:38:48;18.45;;;8.27;;
31095;SDS011;17749;51.962;8.560;2022-10-30T18:41:25;16.90;;;8.23;;
31095;SDS011;17749;51.962;8.560;2022-10-30T18:43:57;19.83;;;8.23;;
31095;SDS011;17749;51.962;8.560;2022-10-30T18:46:24;20.50;;;8.65;;
31095;SDS011;17749;51.962;8.560;2022-10-30T18:48:51;18.30;;;8.35;;
31095;SDS011;17749;51.962;8.560;2022-10-30T18:51:19;22.27;;;8.25;;
31095;SDS011;17749;51.962;8.560;2022-10-30T18:53:47;14.48;;;7.95;;
31095;SDS011;17749;51.962;8.560;2022-10-30T18:56:18;24.10;;;9.77;;
31095;SDS011;17749;51.962;8.560;2022-10-30T18:58:50;17.70;;;10.23;;
31095;SDS011;17749;51.962;8.560;2022-10-30T19:01:24;26.30;;;10.55;;
31095;SDS011;17749;51.962;8.560;2022-10-30T19:03:51;17.92;;;9.98;;
31095;SDS011;17749;51.962;8.560;2022-10-30T19:06:19;19.15;;;12.25;;
31095;SDS011;17749;51.962;8.560;2022-10-30T19:08:49;21.88;;;11.07;;
31095;SDS011;17749;51.962;8.560;2022-10-30T19:11:17;20.90;;;10.65;;
31095;SDS011;17749;51.962;8.560;2022-10-30T19:13:51;19.70;;;9.68;;
31095;SDS011;17749;51.962;8.560;2022-10-30T19:16:19;18.27;;;10.13;;
31095;SDS011;17749;51.962;8.560;2022-10-30T19:18:47;19.55;;;10.30;;
31095;SDS011;17749;51.962;8.560;2022-10-30T19:21:15;24.48;;;11.48;;
31095;SDS011;17749;51.962;8.560;2022-10-30T19:23:43;30.13;;;10.60;;
31095;SDS011;17749;51.962;8.560;2022-10-30T19:26:10;19.50;;;11.27;;
31095;SDS011;17749;51.962;8.560;2022-10-30T19:28:40;26.35;;;11.40;;
31095;SDS011;17749;51.962;8.560;2022-10-30T19:31:10;21.75;;;10.88;;
31095;SDS011;17749;51.962;8.560;2022-10-30T19:33:40;20.13;;;10.70;;
31095;SDS011;17749;51.962;8.560;2022-10-30T19:36:26;29.90;;;11.02;;
31095;SDS011;17749;51.962;8.560;2022-10-30T19:38:53;16.92;;;10.82;;
31095;SDS011;17749;51.962;8.560;2022-10-30T19:41:20;23.88;;;10.82;;
31095;SDS011;17749;51.962;8.560;2022-10-30T19:43:48;20.70;;;11.73;;
31095;SDS011;17749;51.962;8.560;2022-10-30T19:46:15;17.33;;;10.30;;
31095;SDS011;17749;51.962;8.560;2022-10-30T19:48:41;26.27;;;10.88;;
31095;SDS011;17749;51.962;8.560;2022-10-30T19:51:26;20.63;;;9.82;;
31095;SDS011;17749;51.962;8.560;2022-10-30T19:53:54;20.98;;;9.65;;
31095;SDS011;17749;51.962;8.560;2022-10-30T19:56:21;16.73;;;10.55;;
31095;SDS011;17749;51.962;8.560;2022-10-30T19:58:48;18.05;;;9.55;;
31095;SDS011;17749;51.962;8.560;2022-10-30T20:01:17;23.80;;;10.27;;
31095;SDS011;17749;51.962;8.560;2022-10-30T20:03:44;19.65;;;10.38;;
31095;SDS011;17749;51.962;8.560;2022-10-30T20:06:11;18.27;;;10.10;;
31095;SDS011;17749;51.962;8.560;2022-10-30T20:08:39;17.00;;;9.80;;
31095;SDS011;17749;51.962;8.560;2022-10-30T20:11:06;23.25;;;10.77;;
31095;SDS011;17749;51.962;8.560;2022-10-30T20:13:35;20.92;;;10.43;;
31095;SDS011;17749;51.962;8.560;2022-10-30T20:16:03;19.80;;;11.30;;
31095;SDS011;17749;51.962;8.560;2022-10-30T20:18:32;20.40;;;11.15;;
31095;SDS011;17749;51.962;8.560;2022-10-30T20:21:01;26.05;;;10.95;;
31095;SDS011;17749;51.962;8.560;2022-10-30T20:23:30;20.35;;;10.60;;
31095;SDS011;17749;51.962;8.560;2022-10-30T20:26:01;19.60;;;11.63;;
31095;SDS011;17749;51.962;8.560;2022-10-30T20:30:58;25.30;;;10.50;;
31095;SDS011;17749;51.962;8.560;2022-10-30T20:33:25;16.75;;;10.48;;
31095;SDS011;17749;51.962;8.560;2022-10-30T20:35:52;18.90;;;10.68;;
31095;SDS011;17749;51.962;8.560;2022-10-30T20:38:21;19.52;;;10.70;;
31095;SDS011;17749;51.962;8.560;2022-10-30T20:40:55;28.30;;;11.15;;
31095;SDS011;17749;51.962;8.560;2022-10-30T20:43:24;20.67;;;9.73;;
31095;SDS011;17749;51.962;8.560;2022-10-30T20:45:55;24.90;;;10.73;;
31095;SDS011;17749;51.962;8.560;2022-10-30T20:48:24;21.95;;;9.82;;
31095;SDS011;17749;51.962;8.560;2022-10-30T20:50:52;19.98;;;10.43;;
31095;SDS011;17749;51.962;8.560;2022-10-30T20:53:19;22.33;;;9.95;;
31095;SDS011;17749;51.962;8.560;2022-10-30T20:55:46;20.35;;;10.32;;
31095;SDS011;17749;51.962;8.560;2022-10-30T20:58:13;20.52;;;9.85;;
31095;SDS011;17749;51.962;8.560;2022-10-30T21:00:40;18.13;;;10.05;;
31095;SDS011;17749;51.962;8.560;2022-10-30T21:03:08;17.48;;;9.82;;
31095;SDS011;17749;51.962;8.560;2022-10-30T21:05:40;22.40;;;9.15;;
31095;SDS011;17749;51.962;8.560;2022-10-30T21:08:10;25.25;;;10.38;;
31095;SDS011;17749;51.962;8.560;2022-10-30T21:10:38;21.38;;;11.00;;
31095;SDS011;17749;51.962;8.560;2022-10-30T21:13:06;18.73;;;9.30;;
31095;SDS011;17749;51.962;8.560;2022-10-30T21:15:39;22.95;;;11.30;;
31095;SDS011;17749;51.962;8.560;2022-10-30T21:18:07;20.23;;;10.60;;
31095;SDS011;17749;51.962;8.560;2022-10-30T21:20:35;18.90;;;10.90;;
31095;SDS011;17749;51.962;8.560;2022-10-30T21:23:03;17.30;;;10.02;;
31095;SDS011;17749;51.962;8.560;2022-10-30T21:25:30;16.55;;;10.65;;
31095;SDS011;17749;51.962;8.560;2022-10-30T21:27:58;18.40;;;10.18;;
